Schneifelwetter: Wetterstation Hallschlag, 537 m . NN
Wetterdaten: Freitag, 21.09.2012
Datum Zeit Temp. A. Feuchte A. Luftdruck Regen Wind Richtung Richtung Sonnenschein T Regen Taupunkt Windchill
21.09.2012 00:14 -0,3 C 84 % 1020 hPa 0,0 l/m 0,0 km/h (0 Bft) W-SW 245 0 min 0 min -2,7 C -0,3 C
21.09.2012 00:29 -0,3 C 85 % 1019 hPa 0,0 l/m 0,0 km/h (0 Bft) W-SW 245 0 min 0 min -2,5 C -0,3 C
21.09.2012 00:44 -0,2 C 85 % 1019 hPa 0,0 l/m 0,0 km/h (0 Bft) W-SW 245 0 min 0 min -2,4 C -0,2 C
21.09.2012 00:59 -0,3 C 86 % 1019 hPa 0,0 l/m 0,0 km/h (0 Bft) W-SW 245 0 min 0 min -2,3 C -0,3 C
21.09.2012 01:14 -0,2 C 86 % 1019 hPa 0,0 l/m 0,0 km/h (0 Bft) W-SW 245 0 min 0 min -2,3 C -0,2 C
21.09.2012 01:29 -0,3 C 86 % 1019 hPa 0,0 l/m 0,0 km/h (0 Bft) W-SW 245 0 min 0 min -2,3 C -0,3 C
21.09.2012 01:44 -0,4 C 86 % 1019 hPa 0,0 l/m 0,0 km/h (0 Bft) W-SW 245 0 min 0 min -2,4 C -0,4 C
21.09.2012 01:59 -0,4 C 86 % 1019 hPa 0,0 l/m 0,0 km/h (0 Bft) W-SW 245 0 min 0 min -2,4 C -0,4 C
21.09.2012 02:15 -0,6 C 86 % 1019 hPa 0,0 l/m 0,0 km/h (0 Bft) W-SW 245 0 min 0 min -2,6 C -0,6 C
21.09.2012 02:30 -0,6 C 87 % 1019 hPa 0,0 l/m 0,0 km/h (0 Bft) W-SW 245 0 min 0 min -2,5 C -0,6 C
21.09.2012 02:45 -0,5 C 87 % 1019 hPa 0,0 l/m 0,0 km/h (0 Bft) W-SW 245 0 min 0 min -2,4 C -0,5 C
21.09.2012 03:00 -0,5 C 88 % 1019 hPa 0,0 l/m 0,0 km/h (0 Bft) W-SW 245 0 min 0 min -2,2 C -0,5 C
21.09.2012 03:15 -0,5 C 88 % 1018 hPa 0,0 l/m 0,0 km/h (0 Bft) W-SW 245 0 min 0 min -2,2 C -0,5 C
21.09.2012 03:30 -0,6 C 88 % 1018 hPa 0,0 l/m 0,0 km/h (0 Bft) W-SW 245 0 min 0 min -2,3 C -0,6 C
21.09.2012 03:45 -0,7 C 88 % 1018 hPa 0,0 l/m 0,0 km/h (0 Bft) W-SW 245 0 min 0 min -2,4 C -0,7 C
21.09.2012 04:00 -0,7 C 88 % 1018 hPa 0,0 l/m 0,0 km/h (0 Bft) W-SW 245 0 min 0 min -2,4 C -0,7 C
21.09.2012 04:15 -0,8 C 89 % 1018 hPa 0,0 l/m 0,0 km/h (0 Bft) W-SW 245 0 min 0 min -2,4 C -0,8 C
21.09.2012 04:30 -0,8 C 89 % 1018 hPa 0,0 l/m 0,0 km/h (0 Bft) W-SW 245 0 min 0 min -2,4 C -0,8 C
21.09.2012 04:45 -0,8 C 89 % 1017 hPa 0,0 l/m 0,0 km/h (0 Bft) W-SW 245 0 min 0 min -2,4 C -0,8 C
21.09.2012 05:00 -0,8 C 89 % 1017 hPa 0,0 l/m 0,0 km/h (0 Bft) W-SW 245 0 min 0 min -2,4 C -0,8 C
21.09.2012 05:15 -0,9 C 89 % 1017 hPa 0,0 l/m 0,0 km/h (0 Bft) W-SW 245 0 min 0 min -2,5 C -0,9 C
21.09.2012 05:30 -0,8 C 90 % 1017 hPa 0,0 l/m 0,0 km/h (0 Bft) W-SW 245 0 min 0 min -2,2 C -0,8 C
21.09.2012 05:45 -0,7 C 90 % 1017 hPa 0,0 l/m 0,0 km/h (0 Bft) W-SW 245 0 min 0 min -2,1 C -0,7 C
21.09.2012 06:00 -0,7 C 90 % 1017 hPa 0,0 l/m 0,0 km/h (0 Bft) W-SW 245 0 min 0 min -2,1 C -0,7 C
21.09.2012 06:08 -0,7 C 90 % 1017 hPa 0,0 l/m 0,0 km/h (0 Bft) W-SW 245 0 min 0 min -2,1 C -0,7 C
21.09.2012 06:23 -0,9 C 90 % 1017 hPa 0,0 l/m 0,0 km/h (0 Bft) W-SW 245 0 min 0 min -2,3 C -0,9 C
21.09.2012 06:38 -0,9 C 90 % 1017 hPa 0,0 l/m 0,0 km/h (0 Bft) W-SW 245 0 min 0 min -2,3 C -0,9 C
21.09.2012 06:53 -0,9 C 90 % 1017 hPa 0,0 l/m 0,0 km/h (0 Bft) W-SW 245 0 min 0 min -2,3 C -0,9 C
21.09.2012 07:08 -0,9 C 90 % 1017 hPa 0,0 l/m 0,0 km/h (0 Bft) W-SW 245 0 min 0 min -2,3 C -0,9 C
21.09.2012 07:23 -0,9 C 91 % 1017 hPa 0,0 l/m 0,0 km/h (0 Bft) W-SW 245 0 min 0 min -2,2 C -0,9 C
21.09.2012 07:38 -0,7 C 91 % 1017 hPa 0,0 l/m 0,0 km/h (0 Bft) W-SW 245 0 min 0 min -2,0 C -0,7 C
21.09.2012 07:59 -0,5 C 91 % 1017 hPa 0,0 l/m 0,0 km/h (0 Bft) W-SW 245 0 min 0 min -1,8 C -0,5 C
21.09.2012 08:14 -0,2 C 91 % 1017 hPa 0,0 l/m 0,0 km/h (0 Bft) W-SW 245 0 min 0 min -1,5 C -0,2 C
21.09.2012 08:30 0,3 C 91 % 1017 hPa 0,0 l/m 0,0 km/h (0 Bft) W-SW 245 0 min 0 min -1,0 C 0,3 C
21.09.2012 08:44 0,9 C 92 % 1016 hPa 0,0 l/m 0,0 km/h (0 Bft) W-SW 245 0 min 0 min -0,2 C 0,9 C
21.09.2012 08:59 1,9 C 92 % 1016 hPa 0,0 l/m 0,0 km/h (0 Bft) W-SW 245 0 min 0 min 0,7 C 1,9 C
21.09.2012 09:14 2,9 C 92 % 1016 hPa 0,0 l/m 0,0 km/h (0 Bft) W-SW 245 0 min 0 min 1,7 C 2,9 C
21.09.2012 09:29 3,8 C 91 % 1016 hPa 0,0 l/m 0,0 km/h (0 Bft) W-SW 245 0 min 0 min 2,5 C 3,8 C
21.09.2012 09:44 4,8 C 91 % 1016 hPa 0,0 l/m 0,0 km/h (0 Bft) W-SW 245 0 min 0 min 3,5 C 4,8 C
21.09.2012 10:00 6,0 C 90 % 1016 hPa 0,0 l/m 0,0 km/h (0 Bft) W-SW 245 0 min 0 min 4,5 C 6,0 C
21.09.2012 10:14 7,2 C 90 % 1016 hPa 0,0 l/m 0,0 km/h (0 Bft) W-SW 245 0 min 0 min 5,7 C 7,2 C
21.09.2012 10:29 8,4 C 88 % 1016 hPa 0,0 l/m 0,0 km/h (0 Bft) W-SW 245 0 min 0 min 6,5 C 8,4 C
21.09.2012 10:44 9,8 C 85 % 1016 hPa 0,0 l/m 0,0 km/h (0 Bft) W-SW 245 0 min 0 min 7,4 C 9,8 C
21.09.2012 10:59 11,0 C 81 % 1016 hPa 0,0 l/m 7,3 km/h (2 Bft) W-SW 245 0 min 0 min 7,9 C 10,4 C
21.09.2012 11:14 11,8 C 73 % 1015 hPa 0,0 l/m 16,7 km/h (3 Bft) S45 170 0 min 0 min 7,1 C 6,7 C
21.09.2012 11:30 12,5 C 70 % 1015 hPa 0,0 l/m 15,2 km/h (3 Bft) S-SO45 165 0 min 0 min 7,2 C 8,1 C
21.09.2012 11:44 13,3 C 66 % 1015 hPa 0,0 l/m 18,0 km/h (3 Bft) S-SO45 160 0 min 0 min 7,1 C 8,1 C
21.09.2012 11:59 13,8 C 65 % 1015 hPa 0,0 l/m 15,7 km/h (3 Bft) S22.5 180 0 min 0 min 7,3 C 9,5 C
21.09.2012 12:14 14,3 C 62 % 1015 hPa 0,0 l/m 15,6 km/h (3 Bft) S-SW67.5 195 0 min 0 min 7,1 C 10,1 C
21.09.2012 12:29 14,5 C 61 % 1015 hPa 0,0 l/m 19,0 km/h (3 Bft) S-SO22.5 165 0 min 0 min 7,1 C 9,4 C
21.09.2012 12:44 15,0 C 57 % 1015 hPa 0,0 l/m 18,6 km/h (3 Bft) S45 175 0 min 0 min 6,6 C 10,1 C
21.09.2012 13:00 15,0 C 58 % 1014 hPa 0,0 l/m 19,6 km/h (3 Bft) S22.5 185 0 min 0 min 6,8 C 9,8 C
21.09.2012 13:14 15,2 C 54 % 1014 hPa 0,0 l/m 16,2 km/h (3 Bft) S45 180 0 min 0 min 6,0 C 11,1 C
21.09.2012 13:29 15,4 C 56 % 1014 hPa 0,0 l/m 17,7 km/h (3 Bft) S45 170 0 min 0 min 6,7 C 10,9 C
21.09.2012 13:44 15,9 C 53 % 1014 hPa 0,0 l/m 16,3 km/h (3 Bft) S45 175 0 min 0 min 6,3 C 11,9 C
21.09.2012 13:59 15,9 C 52 % 1014 hPa 0,0 l/m 15,8 km/h (3 Bft) S45 175 0 min 0 min 6,1 C 12,0 C
21.09.2012 14:15 15,9 C 51 % 1013 hPa 0,0 l/m 18,6 km/h (3 Bft) SW67.5 225 0 min 0 min 5,8 C 11,3 C
21.09.2012 14:30 16,3 C 52 % 1013 hPa 0,0 l/m 13,6 km/h (3 Bft) S-SO22.5 160 0 min 0 min 6,4 C 13,2 C
21.09.2012 14:44 16,4 C 52 % 1013 hPa 0,0 l/m 13,1 km/h (3 Bft) S22.5 190 0 min 0 min 6,5 C 13,5 C
21.09.2012 14:59 16,8 C 53 % 1013 hPa 0,0 l/m 12,6 km/h (3 Bft) S22.5 175 0 min 0 min 7,2 C 14,1 C
21.09.2012 15:14 16,7 C 52 % 1013 hPa 0,0 l/m 14,2 km/h (3 Bft) S22.5 170 0 min 0 min 6,8 C 13,5 C
21.09.2012 15:29 16,4 C 53 % 1012 hPa 0,0 l/m 15,1 km/h (3 Bft) S-SO22.5 160 0 min 0 min 6,8 C 12,9 C
21.09.2012 15:45 16,2 C 55 % 1012 hPa 0,0 l/m 12,7 km/h (3 Bft) S45 175 0 min 0 min 7,2 C 13,4 C
21.09.2012 16:00 15,9 C 56 % 1012 hPa 0,0 l/m 11,4 km/h (2 Bft) S22.5 170 0 min 0 min 7,1 C 13,5 C
21.09.2012 16:14 15,6 C 57 % 1012 hPa 0,0 l/m 9,8 km/h (2 Bft) S45 185 0 min 0 min 7,1 C 13,9 C
21.09.2012 16:29 15,4 C 58 % 1012 hPa 0,0 l/m 12,7 km/h (3 Bft) SW22.5 215 0 min 0 min 7,2 C 12,5 C
21.09.2012 16:44 15,0 C 60 % 1012 hPa 0,0 l/m 12,6 km/h (3 Bft) SW22.5 215 0 min 0 min 7,3 C 12,0 C
21.09.2012 16:59 14,7 C 61 % 1012 hPa 0,0 l/m 6,7 km/h (2 Bft) S-SW22.5 200 0 min 0 min 7,3 C 14,5 C
21.09.2012 17:15 14,4 C 62 % 1012 hPa 0,0 l/m 5,8 km/h (2 Bft) S 180 0 min 0 min 7,2 C 14,4 C
21.09.2012 17:30 14,0 C 63 % 1012 hPa 0,0 l/m 11,1 km/h (2 Bft) S-SW45 205 0 min 0 min 7,1 C 11,5 C
21.09.2012 17:44 13,7 C 64 % 1011 hPa 0,0 l/m 11,6 km/h (2 Bft) SW67.5 225 0 min 0 min 7,0 C 10,9 C
21.09.2012 17:59 13,2 C 66 % 1011 hPa 0,0 l/m 8,7 km/h (2 Bft) W-SW22.5 250 0 min 0 min 7,0 C 11,8 C
21.09.2012 18:14 13,0 C 66 % 1011 hPa 0,0 l/m 4,8 km/h (1 Bft) W-SW 245 0 min 0 min 6,8 C 13,0 C
21.09.2012 18:29 12,8 C 68 % 1011 hPa 0,0 l/m 0,0 km/h (0 Bft) W-SW 245 0 min 0 min 7,0 C 12,8 C
21.09.2012 18:45 12,4 C 68 % 1011 hPa 0,0 l/m 0,0 km/h (0 Bft) W-SW 245 0 min 0 min 6,7 C 12,4 C
21.09.2012 19:00 12,1 C 70 % 1011 hPa 0,0 l/m 0,0 km/h (0 Bft) W-SW 245 0 min 0 min 6,8 C 12,1 C
21.09.2012 19:14 11,9 C 70 % 1011 hPa 0,0 l/m 0,0 km/h (0 Bft) W-SW 245 0 min 0 min 6,6 C 11,9 C
21.09.2012 19:29 11,5 C 71 % 1011 hPa 0,0 l/m 0,0 km/h (0 Bft) W-SW 245 0 min 0 min 6,4 C 11,5 C
21.09.2012 19:44 11,2 C 72 % 1011 hPa 0,0 l/m 0,0 km/h (0 Bft) W-SW 245 0 min 0 min 6,3 C 11,2 C
21.09.2012 19:59 11,0 C 73 % 1011 hPa 0,0 l/m 9,9 km/h (2 Bft) S-SW22.5 205 0 min 0 min 6,4 C 8,8 C
21.09.2012 20:15 11,3 C 74 % 1011 hPa 0,0 l/m 18,7 km/h (3 Bft) SW45 215 0 min 0 min 6,8 C 5,4 C
21.09.2012 20:30 11,7 C 74 % 1011 hPa 0,0 l/m 18,8 km/h (3 Bft) SW45 225 0 min 0 min 7,2 C 5,9 C
21.09.2012 20:44 11,6 C 73 % 1011 hPa 0,0 l/m 22,9 km/h (4 Bft) SW45 230 0 min 0 min 6,9 C 4,5 C
21.09.2012 20:59 11,2 C 72 % 1011 hPa 0,0 l/m 22,9 km/h (4 Bft) SW22.5 235 0 min 0 min 6,3 C 4,0 C
21.09.2012 21:14 10,9 C 73 % 1011 hPa 0,0 l/m 15,9 km/h (3 Bft) W-SW22.5 250 0 min 0 min 6,3 C 5,9 C
21.09.2012 21:29 10,5 C 73 % 1011 hPa 0,0 l/m 20,3 km/h (4 Bft) W-SW45 255 0 min 0 min 5,9 C 3,8 C
21.09.2012 21:45 10,3 C 75 % 1011 hPa 0,0 l/m 14,8 km/h (3 Bft) W-SW22.5 245 0 min 0 min 6,1 C 5,6 C
21.09.2012 21:59 10,0 C 75 % 1010 hPa 0,0 l/m 15,2 km/h (3 Bft) S-SW22.5 210 0 min 0 min 5,8 C 5,1 C
21.09.2012 22:14 9,9 C 77 % 1011 hPa 0,0 l/m 14,1 km/h (3 Bft) SW22.5 225 0 min 0 min 6,1 C 5,4 C
21.09.2012 22:29 9,8 C 77 % 1010 hPa 0,0 l/m 12,9 km/h (3 Bft) SW22.5 220 0 min 0 min 6,0 C 5,8 C
21.09.2012 22:44 9,6 C 77 % 1010 hPa 0,0 l/m 10,4 km/h (2 Bft) SW 235 0 min 0 min 5,8 C 6,9 C
21.09.2012 23:00 9,5 C 78 % 1010 hPa 0,0 l/m 12,4 km/h (3 Bft) W-SW22.5 245 0 min 0 min 5,9 C 5,7 C
21.09.2012 23:15 9,4 C 79 % 1010 hPa 0,0 l/m 7,0 km/h (2 Bft) W-SW 255 0 min 0 min 5,9 C 9,0 C
21.09.2012 23:29 9,3 C 79 % 1010 hPa 0,0 l/m 9,9 km/h (2 Bft) W-SW 255 0 min 0 min 5,8 C 6,9 C
21.09.2012 23:44 9,2 C 79 % 1010 hPa 0,0 l/m 7,3 km/h (2 Bft) W-SW 255 0 min 0 min 5,8 C 8,5 C
21.09.2012 23:53 9,0 C 80 % 1010 hPa 0,0 l/m 5,4 km/h (1 Bft) W-SW 255 0 min 0 min 5,7 C 9,0 C
_ Min-Zeit 05:15 14:15 21:59 - 00:14 - - - - 00:14 05:15
Minimum _ -0,9 C 51 % 1010 hPa - 0,0 km/h (0 Bft) - - - - -2,7 C -0,9 C
_ Max-Zeit 14:59 08:44 00:14 00:14 20:44 - - 00:14 00:14 10:59 16:59
Maximum _ 16,8 C 92 % 1020 hPa 0,0 l/m 22,9 km/h
SW (4 Bft)
- - 0 min 0 min 7,9 C 14,5 C
Durchschnitt _ 7,4 C 76 % 1015 hPa #0,0 l/m 6,7 km/h (2 Bft) S - #0 min. #0 min. 3,2 C 5,7 C